createdAt,value
2019-05-25T00:37:42.153Z,1013.14
2019-05-25T00:37:42.728Z,1013.16
2019-05-25T00:37:43.326Z,1013.13
2019-05-25T00:37:43.927Z,1013.16
2019-05-25T00:37:44.526Z,1013.13
2019-05-25T00:37:45.126Z,1013.15
2019-05-25T00:38:39.809Z,1013.12
2019-05-25T00:38:40.385Z,1013.16
2019-05-25T00:38:40.981Z,1013.12
2019-05-25T00:38:41.579Z,1013.14
2019-05-25T00:38:42.179Z,1013.17
2019-05-25T00:38:42.779Z,1013.14
2019-05-25T00:39:37.467Z,1013.11
2019-05-25T00:39:38.033Z,1013.12
2019-05-25T00:39:38.632Z,1013.12
2019-05-25T00:39:39.232Z,1013.14
2019-05-25T00:39:39.834Z,1013.12
2019-05-25T00:40:36.135Z,1013.13
2019-05-25T00:40:36.709Z,1013.14
2019-05-25T00:40:37.307Z,1013.16
2019-05-25T00:40:37.908Z,1013.14
2019-05-25T00:40:38.508Z,1013.16
2019-05-25T00:40:39.110Z,1013.14
2019-05-25T00:41:33.789Z,1013.12
2019-05-25T00:41:34.361Z,1013.15
2019-05-25T00:41:34.967Z,1013.13
2019-05-25T00:41:35.561Z,1013.18
2019-05-25T00:41:36.160Z,1013.11
2019-05-25T00:41:36.762Z,1013.13
2019-05-25T00:42:32.463Z,1013.10
2019-05-25T00:42:33.037Z,1013.13
2019-05-25T00:42:33.664Z,1013.10
2019-05-25T00:42:34.239Z,1013.12
2019-05-25T00:42:34.837Z,1013.15
2019-05-25T00:42:36.642Z,1013.14
2019-05-25T00:43:30.118Z,1013.16
2019-05-25T00:43:30.690Z,1013.14
2019-05-25T00:43:31.289Z,1013.16
2019-05-25T00:43:31.893Z,1013.17
2019-05-25T00:43:32.490Z,1013.17
2019-05-25T00:44:28.791Z,1013.11
2019-05-25T00:44:29.364Z,1013.13
2019-05-25T00:44:29.965Z,1013.12
2019-05-25T00:44:30.563Z,1013.12
2019-05-25T00:44:31.164Z,1013.16
2019-05-25T00:44:31.765Z,1013.16
2019-05-25T00:45:26.444Z,1013.14
2019-05-25T00:45:27.018Z,1013.18
2019-05-25T00:45:27.617Z,1013.17
2019-05-25T00:45:28.223Z,1013.17
2019-05-25T00:45:28.817Z,1013.15
2019-05-25T00:45:29.424Z,1013.18
2019-05-25T00:46:25.127Z,1013.17
2019-05-25T00:46:25.694Z,1013.18
2019-05-25T00:46:26.293Z,1013.18
2019-05-25T00:46:26.893Z,1013.18
2019-05-25T00:46:27.503Z,1013.17
2019-05-25T00:46:29.292Z,1013.16
2019-05-25T00:47:22.772Z,1013.15
2019-05-25T00:47:23.349Z,1013.14
2019-05-25T00:47:23.945Z,1013.17
2019-05-25T00:47:24.548Z,1013.15
2019-05-25T00:47:25.145Z,1013.10
2019-05-25T00:48:20.425Z,1013.14
2019-05-25T00:48:20.997Z,1013.13
2019-05-25T00:48:21.596Z,1013.18
2019-05-25T00:48:22.200Z,1013.19
2019-05-25T00:48:22.796Z,1013.14
2019-05-25T00:48:23.402Z,1013.14
2019-05-25T00:49:18.075Z,1013.18
2019-05-25T00:49:18.648Z,1013.17
2019-05-25T00:49:19.255Z,1013.14
2019-05-25T00:49:19.850Z,1013.19
2019-05-25T00:49:20.448Z,1013.16
2019-05-25T00:49:21.048Z,1013.14
2019-05-25T00:50:15.728Z,1013.16
2019-05-25T00:50:16.302Z,1013.16
2019-05-25T00:50:16.900Z,1013.19
2019-05-25T00:50:17.501Z,1013.18
2019-05-25T00:50:18.100Z,1013.16
2019-05-25T00:51:14.414Z,1013.20
2019-05-25T00:51:14.974Z,1013.17
2019-05-25T00:51:15.574Z,1013.21
2019-05-25T00:51:16.175Z,1013.20
2019-05-25T00:51:16.775Z,1013.23
2019-05-25T00:51:17.378Z,1013.22
2019-05-25T00:52:13.080Z,1013.18
2019-05-25T00:52:13.651Z,1013.22
2019-05-25T00:52:14.252Z,1013.23
2019-05-25T00:52:14.852Z,1013.21
2019-05-25T00:52:15.450Z,1013.18
2019-05-25T00:52:16.051Z,1013.22
2019-05-25T00:53:10.733Z,1013.21
2019-05-25T00:53:11.306Z,1013.24
2019-05-25T00:53:11.904Z,1013.20
2019-05-25T00:53:12.505Z,1013.19
2019-05-25T00:53:13.104Z,1013.18
2019-05-25T00:53:14.910Z,1013.21
2019-05-25T00:54:08.388Z,1013.20
2019-05-25T00:54:08.956Z,1013.20
2019-05-25T00:54:09.554Z,1013.20
2019-05-25T00:54:10.155Z,1013.21
2019-05-25T00:54:10.760Z,1013.21
2019-05-25T00:55:07.064Z,1013.19
2019-05-25T00:55:07.631Z,1013.24
2019-05-25T00:55:08.243Z,1013.24
2019-05-25T00:55:08.834Z,1013.25
2019-05-25T00:55:09.431Z,1013.25
2019-05-25T00:55:10.032Z,1013.25
2019-05-25T00:56:04.712Z,1013.22
2019-05-25T00:56:05.285Z,1013.22
2019-05-25T00:56:05.887Z,1013.26
2019-05-25T00:56:06.483Z,1013.24
2019-05-25T00:56:07.084Z,1013.26
2019-05-25T00:56:07.684Z,1013.28
2019-05-25T00:57:02.364Z,1013.26
2019-05-25T00:57:02.938Z,1013.27
2019-05-25T00:57:03.535Z,1013.29
2019-05-25T00:57:04.136Z,1013.30
2019-05-25T00:57:04.739Z,1013.30
2019-05-25T00:58:01.104Z,1013.25
2019-05-25T00:58:01.615Z,1013.26
2019-05-25T00:58:02.210Z,1013.27
2019-05-25T00:58:02.812Z,1013.26
2019-05-25T00:58:03.409Z,1013.29
2019-05-25T00:58:04.014Z,1013.27
2019-05-25T00:58:58.691Z,1013.29
2019-05-25T00:58:59.264Z,1013.31
2019-05-25T00:58:59.864Z,1013.25
2019-05-25T00:59:00.464Z,1013.28
2019-05-25T00:59:01.064Z,1013.31
2019-05-25T00:59:01.663Z,1013.32
2019-05-25T00:59:56.343Z,1013.28
2019-05-25T00:59:56.916Z,1013.32
2019-05-25T00:59:57.515Z,1013.29
2019-05-25T00:59:58.115Z,1013.28
2019-05-25T00:59:58.716Z,1013.30
2019-05-25T01:00:55.036Z,1013.32
2019-05-25T01:00:55.609Z,1013.28
2019-05-25T01:00:56.239Z,1013.31
2019-05-25T01:00:56.799Z,1013.31
2019-05-25T01:00:57.395Z,1013.29
2019-05-25T01:00:58.028Z,1013.30
2019-05-25T01:01:53.695Z,1013.32
2019-05-25T01:01:54.266Z,1013.34
2019-05-25T01:01:54.867Z,1013.34
2019-05-25T01:01:55.466Z,1013.33
2019-05-25T01:01:56.067Z,1013.32
2019-05-25T01:01:56.666Z,1013.33
2019-05-25T01:02:52.372Z,1013.29
2019-05-25T01:02:52.950Z,1013.34
2019-05-25T01:02:53.546Z,1013.31
2019-05-25T01:02:54.142Z,1013.35
2019-05-25T01:02:54.750Z,1013.28
2019-05-25T01:02:55.350Z,1013.32
2019-05-25T01:03:50.025Z,1013.30
2019-05-25T01:03:50.594Z,1013.37
2019-05-25T01:03:51.193Z,1013.34
2019-05-25T01:03:51.793Z,1013.31
2019-05-25T01:03:52.398Z,1013.30
2019-05-25T01:04:47.674Z,1013.31
2019-05-25T01:04:48.246Z,1013.35
2019-05-25T01:04:48.845Z,1013.35
2019-05-25T01:04:49.445Z,1013.31
2019-05-25T01:04:50.046Z,1013.30
2019-05-25T01:04:50.645Z,1013.30
2019-05-25T01:05:46.349Z,1013.32
2019-05-25T01:05:46.935Z,1013.34
2019-05-25T01:05:47.521Z,1013.33
2019-05-25T01:05:48.123Z,1013.35
2019-05-25T01:05:48.720Z,1013.33
2019-05-25T01:05:49.321Z,1013.34
2019-05-25T01:06:45.023Z,1013.33
2019-05-25T01:06:45.597Z,1013.34
2019-05-25T01:06:46.201Z,1013.32
2019-05-25T01:06:46.796Z,1013.39
2019-05-25T01:06:47.403Z,1013.34
2019-05-25T01:06:47.996Z,1013.36
2019-05-25T01:07:43.700Z,1013.34
2019-05-25T01:07:44.273Z,1013.37
2019-05-25T01:07:44.872Z,1013.38
2019-05-25T01:07:45.471Z,1013.33
2019-05-25T01:07:46.072Z,1013.34
2019-05-25T01:07:47.871Z,1013.33
2019-05-25T01:08:41.355Z,1013.35
2019-05-25T01:08:41.927Z,1013.36
2019-05-25T01:08:42.525Z,1013.35
2019-05-25T01:08:43.125Z,1013.36
2019-05-25T01:08:43.725Z,1013.40
2019-05-25T01:09:39.006Z,1013.30
2019-05-25T01:09:39.577Z,1013.31
2019-05-25T01:09:40.183Z,1013.32
2019-05-25T01:09:40.778Z,1013.34
2019-05-25T01:09:41.375Z,1013.35
2019-05-25T01:09:41.993Z,1013.33
2019-05-25T01:10:37.678Z,1013.31
2019-05-25T01:10:38.253Z,1013.32
2019-05-25T01:10:38.852Z,1013.33
2019-05-25T01:10:39.450Z,1013.34
2019-05-25T01:10:40.053Z,1013.32
2019-05-25T01:10:40.653Z,1013.30
2019-05-25T01:11:36.355Z,1013.31
2019-05-25T01:11:36.927Z,1013.34
2019-05-25T01:11:37.527Z,1013.35
2019-05-25T01:11:38.127Z,1013.32
2019-05-25T01:11:38.727Z,1013.33
2019-05-25T01:11:39.326Z,1013.32
2019-05-25T01:12:35.032Z,1013.25
2019-05-25T01:12:35.602Z,1013.30
2019-05-25T01:12:36.203Z,1013.27
2019-05-25T01:12:36.803Z,1013.29
2019-05-25T01:12:37.402Z,1013.25
2019-05-25T01:12:39.201Z,1013.31
2019-05-25T01:13:32.683Z,1013.33
2019-05-25T01:13:33.257Z,1013.34
2019-05-25T01:13:33.856Z,1013.31
2019-05-25T01:13:34.457Z,1013.31
2019-05-25T01:13:35.055Z,1013.30
2019-05-25T01:14:30.335Z,1013.31
2019-05-25T01:14:30.969Z,1013.30
2019-05-25T01:14:31.507Z,1013.32
2019-05-25T01:14:32.108Z,1013.31
2019-05-25T01:14:32.708Z,1013.31
2019-05-25T01:14:33.307Z,1013.28
2019-05-25T01:15:27.987Z,1013.36
2019-05-25T01:15:28.595Z,1013.35
2019-05-25T01:15:29.160Z,1013.34
2019-05-25T01:15:29.766Z,1013.37
2019-05-25T01:15:30.359Z,1013.36
2019-05-25T01:15:30.959Z,1013.38
2019-05-25T01:16:26.663Z,1013.28
2019-05-25T01:16:27.240Z,1013.33
2019-05-25T01:16:27.832Z,1013.34
2019-05-25T01:16:28.431Z,1013.32
2019-05-25T01:16:29.046Z,1013.35
2019-05-25T01:16:30.832Z,1013.28
2019-05-25T01:17:24.314Z,1013.30
2019-05-25T01:17:24.886Z,1013.33
2019-05-25T01:17:25.486Z,1013.33
2019-05-25T01:17:26.089Z,1013.35
2019-05-25T01:17:26.685Z,1013.34
2019-05-25T01:18:34.682Z,1013.32
2019-05-25T01:18:35.241Z,1013.33
2019-05-25T01:18:35.897Z,1013.35
2019-05-25T01:18:36.436Z,1013.38
2019-05-25T01:18:37.035Z,1013.35
2019-05-25T01:18:37.633Z,1013.37
2019-05-25T01:19:32.316Z,1013.34
2019-05-25T01:19:32.888Z,1013.35
2019-05-25T01:19:33.490Z,1013.35
2019-05-25T01:19:34.089Z,1013.33
2019-05-25T01:19:34.706Z,1013.35
2019-05-25T01:19:35.292Z,1013.34
2019-05-25T01:20:29.968Z,1013.35
2019-05-25T01:20:30.539Z,1013.37
2019-05-25T01:20:31.150Z,1013.36
2019-05-25T01:20:31.738Z,1013.32
2019-05-25T01:20:32.345Z,1013.37
2019-05-25T01:21:27.619Z,1013.29
2019-05-25T01:21:28.191Z,1013.33
2019-05-25T01:21:28.792Z,1013.33
2019-05-25T01:21:29.392Z,1013.34
2019-05-25T01:21:29.992Z,1013.30
2019-05-25T01:21:30.591Z,1013.34
2019-05-25T01:22:26.297Z,1013.35
2019-05-25T01:22:26.866Z,1013.34
2019-05-25T01:22:27.533Z,1013.34
2019-05-25T01:22:28.068Z,1013.28
2019-05-25T01:22:28.667Z,1013.31
2019-05-25T01:22:29.266Z,1013.33
2019-05-25T01:23:23.952Z,1013.31
2019-05-25T01:23:24.522Z,1013.36
2019-05-25T01:23:25.119Z,1013.32
2019-05-25T01:23:25.719Z,1013.34
2019-05-25T01:23:26.362Z,1013.37
2019-05-25T01:23:28.128Z,1013.28
2019-05-25T01:24:22.621Z,1013.30
2019-05-25T01:24:23.205Z,1013.30
2019-05-25T01:24:23.792Z,1013.34
2019-05-25T01:24:24.394Z,1013.31
2019-05-25T01:24:24.993Z,1013.33
2019-05-25T01:25:20.279Z,1013.33
2019-05-25T01:25:20.846Z,1013.36
2019-05-25T01:25:21.448Z,1013.34
2019-05-25T01:25:22.049Z,1013.30
2019-05-25T01:25:22.646Z,1013.34
2019-05-25T01:25:23.248Z,1013.34
2019-05-25T01:26:17.927Z,1013.32
2019-05-25T01:26:18.497Z,1013.34
2019-05-25T01:26:19.111Z,1013.31
2019-05-25T01:26:19.699Z,1013.33
2019-05-25T01:26:20.298Z,1013.32
2019-05-25T01:26:20.951Z,1013.35
2019-05-25T01:27:15.627Z,1013.35
2019-05-25T01:27:16.148Z,1013.33
2019-05-25T01:27:16.749Z,1013.34
2019-05-25T01:27:17.348Z,1013.28
2019-05-25T01:27:17.948Z,1013.33
2019-05-25T01:28:14.253Z,1013.32
2019-05-25T01:28:14.837Z,1013.35
2019-05-25T01:28:15.424Z,1013.33
2019-05-25T01:28:16.028Z,1013.37
2019-05-25T01:28:16.624Z,1013.37
2019-05-25T01:28:17.224Z,1013.37
2019-05-25T01:29:11.907Z,1013.42
2019-05-25T01:29:12.479Z,1013.42
2019-05-25T01:29:13.077Z,1013.43
2019-05-25T01:29:13.676Z,1013.41
2019-05-25T01:29:14.278Z,1013.43
2019-05-25T01:29:14.877Z,1013.44
2019-05-25T01:30:09.556Z,1013.41
2019-05-25T01:30:10.128Z,1013.40
2019-05-25T01:30:10.729Z,1013.41
2019-05-25T01:30:11.332Z,1013.40
2019-05-25T01:30:11.929Z,1013.41
2019-05-25T01:31:08.232Z,1013.41
2019-05-25T01:31:08.804Z,1013.39
2019-05-25T01:31:09.442Z,1013.44
2019-05-25T01:31:10.004Z,1013.43
2019-05-25T01:31:10.621Z,1013.42
2019-05-25T01:31:11.207Z,1013.42
2019-05-25T01:32:06.910Z,1013.39
2019-05-25T01:32:07.480Z,1013.39
2019-05-25T01:32:08.079Z,1013.40
2019-05-25T01:32:08.679Z,1013.42
2019-05-25T01:32:09.281Z,1013.42
2019-05-25T01:32:09.879Z,1013.41
2019-05-25T01:33:04.560Z,1013.41
2019-05-25T01:33:05.131Z,1013.38
2019-05-25T01:33:05.732Z,1013.40
2019-05-25T01:33:06.332Z,1013.43
2019-05-25T01:33:06.931Z,1013.44
2019-05-25T01:33:08.734Z,1013.44
2019-05-25T01:34:02.211Z,1013.41
2019-05-25T01:34:02.783Z,1013.41
2019-05-25T01:34:03.384Z,1013.40
2019-05-25T01:34:03.984Z,1013.44
2019-05-25T01:34:04.585Z,1013.43
2019-05-25T01:34:59.863Z,1013.41
2019-05-25T01:35:00.438Z,1013.42
2019-05-25T01:35:01.036Z,1013.40
2019-05-25T01:35:01.638Z,1013.43
2019-05-25T01:35:02.235Z,1013.42
2019-05-25T01:35:02.861Z,1013.39
2019-05-25T01:35:57.515Z,1013.41
2019-05-25T01:35:58.137Z,1013.46
2019-05-25T01:35:58.686Z,1013.47
2019-05-25T01:35:59.287Z,1013.45
2019-05-25T01:35:59.888Z,1013.44
2019-05-25T01:36:00.487Z,1013.46
2019-05-25T01:36:55.167Z,1013.46
2019-05-25T01:36:55.744Z,1013.47
2019-05-25T01:36:56.339Z,1013.48
2019-05-25T01:36:56.941Z,1013.49
2019-05-25T01:36:57.539Z,1013.51
2019-05-25T01:37:52.818Z,1013.40
2019-05-25T01:37:53.391Z,1013.47
2019-05-25T01:37:53.992Z,1013.46
2019-05-25T01:37:54.590Z,1013.44
2019-05-25T01:37:55.192Z,1013.45
2019-05-25T01:37:55.791Z,1013.45
2019-05-25T01:38:51.493Z,1013.45
2019-05-25T01:38:52.067Z,1013.46
2019-05-25T01:38:52.665Z,1013.44
2019-05-25T01:38:53.265Z,1013.47
2019-05-25T01:38:53.865Z,1013.45
2019-05-25T01:38:54.465Z,1013.47
2019-05-25T01:39:50.170Z,1013.45
2019-05-25T01:39:50.742Z,1013.44
2019-05-25T01:39:51.347Z,1013.45
2019-05-25T01:39:51.942Z,1013.46
2019-05-25T01:39:52.541Z,1013.41
2019-05-25T01:39:53.141Z,1013.46
2019-05-25T01:40:47.821Z,1013.48
2019-05-25T01:40:48.393Z,1013.46
2019-05-25T01:40:48.994Z,1013.46
2019-05-25T01:40:49.595Z,1013.44
2019-05-25T01:40:50.193Z,1013.47
2019-05-25T01:41:45.473Z,1013.49
2019-05-25T01:41:46.047Z,1013.47
2019-05-25T01:41:46.645Z,1013.51
2019-05-25T01:41:47.245Z,1013.46
2019-05-25T01:41:47.846Z,1013.49
2019-05-25T01:41:48.447Z,1013.48
2019-05-25T01:42:44.153Z,1013.46
2019-05-25T01:42:44.720Z,1013.49
2019-05-25T01:42:45.320Z,1013.42
2019-05-25T01:42:45.920Z,1013.48
2019-05-25T01:42:46.520Z,1013.45
2019-05-25T01:42:47.119Z,1013.47
2019-05-25T01:43:42.824Z,1013.48
2019-05-25T01:43:43.396Z,1013.51
2019-05-25T01:43:43.995Z,1013.50
2019-05-25T01:43:44.595Z,1013.52
2019-05-25T01:43:45.196Z,1013.47
2019-05-25T01:43:45.797Z,1013.48
2019-05-25T01:44:41.504Z,1013.48
2019-05-25T01:44:42.074Z,1013.48
2019-05-25T01:44:42.676Z,1013.49
2019-05-25T01:44:43.272Z,1013.50
2019-05-25T01:44:43.872Z,1013.46
2019-05-25T01:44:45.672Z,1013.53
2019-05-25T01:45:40.179Z,1013.47
2019-05-25T01:45:40.748Z,1013.48
2019-05-25T01:45:41.348Z,1013.52
2019-05-25T01:45:41.947Z,1013.48
2019-05-25T01:45:42.547Z,1013.49
2019-05-25T01:46:38.851Z,1013.49
2019-05-25T01:46:39.463Z,1013.48
2019-05-25T01:46:40.024Z,1013.49
2019-05-25T01:46:40.625Z,1013.51
2019-05-25T01:46:41.227Z,1013.51
2019-05-25T01:46:41.824Z,1013.51
2019-05-25T01:47:36.507Z,1013.52
2019-05-25T01:47:37.076Z,1013.52
2019-05-25T01:47:37.678Z,1013.51
2019-05-25T01:47:38.276Z,1013.49
2019-05-25T01:47:38.878Z,1013.51
2019-05-25T01:47:39.476Z,1013.53
2019-05-25T01:48:35.181Z,1013.46
2019-05-25T01:48:35.751Z,1013.55
2019-05-25T01:48:36.355Z,1013.51
2019-05-25T01:48:36.952Z,1013.52
2019-05-25T01:48:37.551Z,1013.52
2019-05-25T01:48:39.354Z,1013.54
2019-05-25T01:49:32.836Z,1013.50
2019-05-25T01:49:33.404Z,1013.50
2019-05-25T01:49:34.004Z,1013.54
2019-05-25T01:49:34.606Z,1013.53
2019-05-25T01:49:35.203Z,1013.50
2019-05-25T01:50:30.483Z,1013.53
2019-05-25T01:50:31.055Z,1013.54
2019-05-25T01:50:31.655Z,1013.54
2019-05-25T01:50:32.255Z,1013.53
2019-05-25T01:50:32.856Z,1013.53
2019-05-25T01:50:33.454Z,1013.50
2019-05-25T01:51:29.160Z,1013.52
2019-05-25T01:51:29.730Z,1013.53
2019-05-25T01:51:30.330Z,1013.49
2019-05-25T01:51:30.933Z,1013.52
2019-05-25T01:51:31.530Z,1013.48
2019-05-25T01:51:32.129Z,1013.48
2019-05-25T01:52:26.814Z,1013.52
2019-05-25T01:52:27.382Z,1013.54
2019-05-25T01:52:27.983Z,1013.53
2019-05-25T01:52:28.584Z,1013.55
2019-05-25T01:52:29.182Z,1013.53
2019-05-25T01:52:30.983Z,1013.50
2019-05-25T01:53:25.487Z,1013.53
2019-05-25T01:53:26.058Z,1013.53
2019-05-25T01:53:26.657Z,1013.51
2019-05-25T01:53:27.258Z,1013.55
2019-05-25T01:53:27.858Z,1013.52
2019-05-25T01:54:24.165Z,1013.54
2019-05-25T01:54:24.758Z,1013.53
2019-05-25T01:54:25.335Z,1013.54
2019-05-25T01:54:25.936Z,1013.54
2019-05-25T01:54:26.531Z,1013.56
2019-05-25T01:54:27.132Z,1013.54
2019-05-25T01:55:22.838Z,1013.56
2019-05-25T01:55:23.410Z,1013.55
2019-05-25T01:55:24.008Z,1013.59
2019-05-25T01:55:24.610Z,1013.55
2019-05-25T01:55:25.211Z,1013.58
2019-05-25T01:55:25.808Z,1013.54
2019-05-25T01:56:20.576Z,1013.54
2019-05-25T01:56:21.076Z,1013.56
2019-05-25T01:56:21.660Z,1013.53
2019-05-25T01:56:22.260Z,1013.56
2019-05-25T01:56:22.860Z,1013.51
2019-05-25T01:56:24.661Z,1013.56
2019-05-25T01:57:19.166Z,1013.54
2019-05-25T01:57:19.736Z,1013.56
2019-05-25T01:57:20.336Z,1013.52
2019-05-25T01:57:20.937Z,1013.53
2019-05-25T01:57:21.535Z,1013.53
2019-05-25T01:58:17.839Z,1013.52
2019-05-25T01:58:18.416Z,1013.51
2019-05-25T01:58:19.012Z,1013.49
2019-05-25T01:58:19.611Z,1013.54
2019-05-25T01:58:20.213Z,1013.53
2019-05-25T01:58:20.812Z,1013.54
2019-05-25T01:59:15.495Z,1013.55
2019-05-25T01:59:16.067Z,1013.53
2019-05-25T01:59:16.668Z,1013.54
2019-05-25T01:59:17.265Z,1013.52
2019-05-25T01:59:17.863Z,1013.54
2019-05-25T01:59:18.464Z,1013.53
2019-05-25T02:00:14.171Z,1013.51
2019-05-25T02:00:14.746Z,1013.55
2019-05-25T02:00:15.338Z,1013.53
2019-05-25T02:00:15.936Z,1013.52
2019-05-25T02:00:16.536Z,1013.51
2019-05-25T02:00:18.337Z,1013.50
2019-05-25T02:01:12.849Z,1013.50
2019-05-25T02:01:13.424Z,1013.53
2019-05-25T02:01:14.016Z,1013.56
2019-05-25T02:01:14.617Z,1013.57
2019-05-25T02:01:15.214Z,1013.54
2019-05-25T02:02:11.520Z,1013.53
2019-05-25T02:02:12.096Z,1013.56
2019-05-25T02:02:12.691Z,1013.55
2019-05-25T02:02:13.314Z,1013.51
2019-05-25T02:02:13.889Z,1013.52
2019-05-25T02:02:14.503Z,1013.55
2019-05-25T02:03:09.174Z,1013.55
2019-05-25T02:03:09.743Z,1013.56
2019-05-25T02:03:10.344Z,1013.56
2019-05-25T02:03:10.945Z,1013.59
2019-05-25T02:03:11.543Z,1013.53
2019-05-25T02:03:12.144Z,1013.51
2019-05-25T02:04:06.823Z,1013.56
2019-05-25T02:04:07.394Z,1013.58
2019-05-25T02:04:07.995Z,1013.58
2019-05-25T02:04:08.595Z,1013.57
2019-05-25T02:04:09.198Z,1013.59
2019-05-25T02:05:05.496Z,1013.52
2019-05-25T02:05:06.072Z,1013.58
2019-05-25T02:05:06.671Z,1013.56
2019-05-25T02:05:07.270Z,1013.57
2019-05-25T02:05:07.872Z,1013.57
2019-05-25T02:05:08.470Z,1013.57
2019-05-25T02:06:03.154Z,1013.60
2019-05-25T02:06:03.722Z,1013.59
2019-05-25T02:06:04.323Z,1013.56
2019-05-25T02:06:04.922Z,1013.59
2019-05-25T02:06:05.523Z,1013.60
2019-05-25T02:06:06.121Z,1013.56
2019-05-25T02:07:01.826Z,1013.58
2019-05-25T02:07:02.398Z,1013.59
2019-05-25T02:07:02.998Z,1013.62
2019-05-25T02:07:03.597Z,1013.56
2019-05-25T02:07:04.198Z,1013.61
2019-05-25T02:07:05.998Z,1013.60
2019-05-25T02:07:59.478Z,1013.60
2019-05-25T02:08:00.057Z,1013.62
2019-05-25T02:08:00.669Z,1013.60
2019-05-25T02:08:01.250Z,1013.57
2019-05-25T02:08:01.854Z,1013.62
2019-05-25T02:08:57.128Z,1013.56
2019-05-25T02:08:57.705Z,1013.60
2019-05-25T02:08:58.303Z,1013.57
2019-05-25T02:08:58.901Z,1013.60
2019-05-25T02:08:59.502Z,1013.61
2019-05-25T02:09:00.100Z,1013.56
2019-05-25T02:09:55.804Z,1013.60
2019-05-25T02:09:56.378Z,1013.59
2019-05-25T02:09:56.978Z,1013.59
2019-05-25T02:09:57.576Z,1013.61
2019-05-25T02:09:58.177Z,1013.61
2019-05-25T02:09:58.781Z,1013.61
2019-05-25T02:10:54.478Z,1013.57
2019-05-25T02:10:55.096Z,1013.61
2019-05-25T02:10:55.651Z,1013.58
2019-05-25T02:10:56.255Z,1013.62
2019-05-25T02:10:56.852Z,1013.59
2019-05-25T02:10:57.452Z,1013.59
2019-05-25T02:11:52.135Z,1013.60
2019-05-25T02:11:52.708Z,1013.60
2019-05-25T02:11:53.305Z,1013.60
2019-05-25T02:11:53.905Z,1013.59
2019-05-25T02:11:54.504Z,1013.58
2019-05-25T02:12:49.785Z,1013.56
2019-05-25T02:12:50.357Z,1013.59
2019-05-25T02:12:50.958Z,1013.62
2019-05-25T02:12:51.557Z,1013.62
2019-05-25T02:12:52.184Z,1013.57
2019-05-25T02:12:52.757Z,1013.57
2019-05-25T02:13:47.437Z,1013.59
2019-05-25T02:13:48.009Z,1013.60
2019-05-25T02:13:48.609Z,1013.60
2019-05-25T02:13:49.209Z,1013.58
2019-05-25T02:13:49.898Z,1013.61
2019-05-25T02:13:50.531Z,1013.60
2019-05-25T02:14:45.088Z,1013.61
2019-05-25T02:14:45.660Z,1013.59
2019-05-25T02:14:46.263Z,1013.62
2019-05-25T02:14:46.860Z,1013.61
2019-05-25T02:14:47.459Z,1013.59
2019-05-25T02:15:43.768Z,1013.56
2019-05-25T02:15:44.335Z,1013.59
2019-05-25T02:15:44.947Z,1013.61
2019-05-25T02:15:45.535Z,1013.63
2019-05-25T02:15:46.134Z,1013.60
2019-05-25T02:15:46.734Z,1013.56
2019-05-25T02:16:41.416Z,1013.54
2019-05-25T02:16:41.990Z,1013.59
2019-05-25T02:16:42.588Z,1013.57
2019-05-25T02:16:43.188Z,1013.61
2019-05-25T02:16:43.788Z,1013.57
2019-05-25T02:16:44.388Z,1013.60
2019-05-25T02:17:39.068Z,1013.55
2019-05-25T02:17:39.640Z,1013.59
2019-05-25T02:17:40.239Z,1013.58
2019-05-25T02:17:40.874Z,1013.58
2019-05-25T02:17:41.439Z,1013.59
2019-05-25T02:18:37.747Z,1013.58
2019-05-25T02:18:38.314Z,1013.61
2019-05-25T02:18:38.916Z,1013.65
2019-05-25T02:18:39.515Z,1013.62
2019-05-25T02:18:40.114Z,1013.60
2019-05-25T02:18:40.713Z,1013.58
2019-05-25T02:19:36.417Z,1013.56
2019-05-25T02:19:36.989Z,1013.59
2019-05-25T02:19:37.589Z,1013.62
2019-05-25T02:19:38.190Z,1013.56
2019-05-25T02:19:38.791Z,1013.60
2019-05-25T02:19:39.390Z,1013.63
2019-05-25T02:20:34.094Z,1013.54
2019-05-25T02:20:34.644Z,1013.57
2019-05-25T02:20:35.243Z,1013.54
2019-05-25T02:20:35.844Z,1013.55
2019-05-25T02:20:36.446Z,1013.57
2019-05-25T02:20:38.245Z,1013.59
2019-05-25T02:21:32.747Z,1013.55
2019-05-25T02:21:33.319Z,1013.59
2019-05-25T02:21:34.017Z,1013.59
2019-05-25T02:21:34.516Z,1013.59
2019-05-25T02:21:35.118Z,1013.59
2019-05-25T02:22:31.423Z,1013.56
2019-05-25T02:22:31.993Z,1013.55
2019-05-25T02:22:32.594Z,1013.55
2019-05-25T02:22:33.193Z,1013.55
2019-05-25T02:22:33.793Z,1013.53
2019-05-25T02:22:34.392Z,1013.51
2019-05-25T02:23:29.077Z,1013.52
2019-05-25T02:23:29.650Z,1013.56
2019-05-25T02:23:30.247Z,1013.58
2019-05-25T02:23:30.852Z,1013.53
2019-05-25T02:23:31.446Z,1013.50
2019-05-25T02:23:32.043Z,1013.56
2019-05-25T02:24:26.726Z,1013.51
2019-05-25T02:24:27.300Z,1013.50
2019-05-25T02:24:27.898Z,1013.57
2019-05-25T02:24:28.498Z,1013.55
2019-05-25T02:24:29.098Z,1013.51
2019-05-25T02:25:24.383Z,1013.49
2019-05-25T02:25:24.950Z,1013.50
2019-05-25T02:25:25.549Z,1013.48
2019-05-25T02:25:26.150Z,1013.52
2019-05-25T02:25:26.749Z,1013.52
2019-05-25T02:25:27.355Z,1013.51
2019-05-25T02:26:23.051Z,1013.47
2019-05-25T02:26:23.625Z,1013.48
2019-05-25T02:26:24.236Z,1013.51
2019-05-25T02:26:24.829Z,1013.49
2019-05-25T02:26:25.426Z,1013.50
2019-05-25T02:26:26.026Z,1013.51
2019-05-25T02:27:20.705Z,1013.47
2019-05-25T02:27:21.278Z,1013.48
2019-05-25T02:27:21.877Z,1013.51
2019-05-25T02:27:22.477Z,1013.53
2019-05-25T02:27:23.076Z,1013.49
2019-05-25T02:27:24.876Z,1013.47
2019-05-25T02:28:19.380Z,1013.51
2019-05-25T02:28:19.953Z,1013.49
2019-05-25T02:28:20.554Z,1013.52
2019-05-25T02:28:21.154Z,1013.53
2019-05-25T02:28:21.753Z,1013.49
2019-05-25T02:29:17.034Z,1013.52
2019-05-25T02:29:17.604Z,1013.55
2019-05-25T02:29:18.206Z,1013.53
2019-05-25T02:29:18.806Z,1013.55
2019-05-25T02:29:19.403Z,1013.52
2019-05-25T02:29:20.009Z,1013.51
2019-05-25T02:30:15.719Z,1013.49
2019-05-25T02:30:16.280Z,1013.49
2019-05-25T02:30:16.889Z,1013.51
2019-05-25T02:30:17.480Z,1013.48
2019-05-25T02:30:18.087Z,1013.52
2019-05-25T02:30:18.680Z,1013.52
2019-05-25T02:31:13.360Z,1013.50
2019-05-25T02:31:13.931Z,1013.53
2019-05-25T02:31:14.532Z,1013.50
2019-05-25T02:31:15.132Z,1013.52
2019-05-25T02:31:15.732Z,1013.53
2019-05-25T02:31:17.531Z,1013.54
2019-05-25T02:32:12.035Z,1013.51
2019-05-25T02:32:12.609Z,1013.52
2019-05-25T02:32:13.209Z,1013.55
2019-05-25T02:32:13.807Z,1013.52
2019-05-25T02:32:14.407Z,1013.54
2019-05-25T02:33:09.691Z,1013.49
2019-05-25T02:33:10.260Z,1013.48
2019-05-25T02:33:10.859Z,1013.49
2019-05-25T02:33:11.459Z,1013.49
2019-05-25T02:33:12.061Z,1013.50
2019-05-25T02:33:12.660Z,1013.49
2019-05-25T02:34:08.363Z,1013.52
2019-05-25T02:34:08.934Z,1013.55
2019-05-25T02:34:09.547Z,1013.57
2019-05-25T02:34:10.133Z,1013.53
2019-05-25T02:34:10.733Z,1013.54
2019-05-25T02:34:11.332Z,1013.54
2019-05-25T02:35:06.015Z,1013.50
2019-05-25T02:35:06.590Z,1013.54
2019-05-25T02:35:07.187Z,1013.53
2019-05-25T02:35:07.786Z,1013.51
2019-05-25T02:35:08.387Z,1013.54
2019-05-25T02:35:10.185Z,1013.54
2019-05-25T02:36:04.689Z,1013.53
2019-05-25T02:36:05.261Z,1013.51
2019-05-25T02:36:05.861Z,1013.56
2019-05-25T02:36:06.462Z,1013.54
2019-05-25T02:36:07.061Z,1013.55
2019-05-25T02:37:03.366Z,1013.50
2019-05-25T02:37:03.941Z,1013.52
2019-05-25T02:37:04.537Z,1013.56
2019-05-25T02:37:05.138Z,1013.52
2019-05-25T02:37:05.737Z,1013.57
2019-05-25T02:37:06.342Z,1013.56
2019-05-25T02:38:02.040Z,1013.53
2019-05-25T02:38:02.615Z,1013.52
2019-05-25T02:38:03.214Z,1013.57
2019-05-25T02:38:03.814Z,1013.54
2019-05-25T02:38:04.413Z,1013.56
2019-05-25T02:38:05.013Z,1013.57
2019-05-25T02:39:00.716Z,1013.60
2019-05-25T02:39:01.288Z,1013.57
2019-05-25T02:39:01.891Z,1013.57
2019-05-25T02:39:02.488Z,1013.59
2019-05-25T02:39:03.088Z,1013.58
2019-05-25T02:39:03.690Z,1013.56
2019-05-25T02:39:58.370Z,1013.61
2019-05-25T02:39:58.943Z,1013.62
2019-05-25T02:39:59.542Z,1013.61